Time;durP1;ratioP1;P1;durP2;ratioP2;P2;SDS_P1;SDS_P2;PMS_P1;PMS_P2;Temp;Humidity;BMP_temperature;BMP_pressure;BME280_temperature;BME280_humidity;BME280_pressure;Samples;Min_cycle;Max_cycle;Signal;HPM_P1;HPM_P2
2022/05/06 00:00:13;;;;;;;37.75;33.17;;;;;;;-141.48;100.00;69781.59;5128459;28;20030;-55
2022/05/06 00:02:43;;;;;;;42.05;36.88;;;;;;;-141.48;100.00;69781.59;5144629;28;20042;-57
2022/05/06 00:05:14;;;;;;;48.95;38.55;;;;;;;-141.48;100.00;69781.59;5127917;28;20035;-57
2022/05/06 00:07:44;;;;;;;45.10;37.83;;;;;;;-141.48;100.00;69781.59;5144387;28;20395;-54
2022/05/06 00:10:15;;;;;;;46.53;35.53;;;;;;;-141.48;100.00;69781.59;5128339;28;20369;-57
2022/05/06 00:12:45;;;;;;;46.83;37.25;;;;;;;-141.48;100.00;69781.59;5128369;28;20105;-55
2022/05/06 00:15:16;;;;;;;56.47;40.13;;;;;;;-141.48;100.00;69781.59;5127975;28;20022;-59
2022/05/06 00:17:46;;;;;;;48.72;39.88;;;;;;;-141.48;100.00;69781.59;5144084;28;20022;-57
2022/05/06 00:20:17;;;;;;;48.35;36.97;;;;;;;-141.48;100.00;69781.59;5145514;28;20033;-56
2022/05/06 00:22:47;;;;;;;52.38;41.75;;;;;;;-141.48;100.00;69781.59;5128128;28;20026;-55
2022/05/06 00:25:18;;;;;;;52.80;41.75;;;;;;;-141.48;100.00;69781.59;5144878;28;20058;-54
2022/05/06 00:27:48;;;;;;;57.50;37.58;;;;;;;-141.48;100.00;69781.59;5145063;28;20086;-54
2022/05/06 00:30:18;;;;;;;58.25;40.53;;;;;;;-141.48;100.00;69781.59;5127748;28;20053;-59
2022/05/06 00:32:49;;;;;;;50.75;37.97;;;;;;;-141.48;100.00;69781.59;5127609;28;20022;-59
2022/05/06 00:35:19;;;;;;;63.55;40.55;;;;;;;-141.48;100.00;69781.59;5127109;28;20034;-57
2022/05/06 00:37:50;;;;;;;65.82;39.53;;;;;;;-141.48;100.00;69781.59;5127805;28;20491;-54
2022/05/06 00:40:20;;;;;;;47.45;38.55;;;;;;;-141.48;100.00;69781.59;5127452;28;20027;-56
2022/05/06 00:42:51;;;;;;;56.55;38.45;;;;;;;-141.48;100.00;69781.59;5144901;28;20485;-55
2022/05/06 00:45:28;;;;;;;51.78;42.60;;;;;;;-141.48;100.00;69781.59;5127166;28;20053;-57
2022/05/06 00:47:59;;;;;;;42.45;37.85;;;;;;;-141.48;100.00;69781.59;5143708;28;20026;-56
2022/05/06 00:50:30;;;;;;;54.88;40.55;;;;;;;-141.48;100.00;69781.59;5127757;28;20328;-58
2022/05/06 00:53:01;;;;;;;62.47;37.83;;;;;;;-141.48;100.00;69781.59;5143232;28;20038;-56
2022/05/06 00:55:33;;;;;;;46.17;38.58;;;;;;;-141.48;100.00;69781.59;5143158;28;20407;-55
2022/05/06 00:58:04;;;;;;;42.55;35.13;;;;;;;-141.48;100.00;69781.59;5127442;28;20380;-55
2022/05/06 01:00:35;;;;;;;64.00;36.53;;;;;;;-141.48;100.00;69781.59;5144369;28;20042;-58
2022/05/06 01:03:05;;;;;;;56.78;37.42;;;;;;;-141.48;100.00;69781.59;5143444;28;20442;-54
2022/05/06 01:05:37;;;;;;;56.65;35.97;;;;;;;-141.48;100.00;69781.59;5126861;28;20343;-56
2022/05/06 01:08:09;;;;;;;49.63;33.40;;;;;;;-141.48;100.00;69781.59;5143201;28;20030;-53
2022/05/06 01:10:41;;;;;;;46.63;37.20;;;;;;;-141.48;100.00;69781.59;5143237;28;20027;-55
2022/05/06 01:13:12;;;;;;;45.33;33.28;;;;;;;-141.48;100.00;69781.59;5143174;28;20038;-56
2022/05/06 01:15:42;;;;;;;42.65;31.85;;;;;;;-141.48;100.00;69781.59;5142949;28;20507;-57
2022/05/06 01:18:13;;;;;;;44.33;32.92;;;;;;;-141.48;100.00;69781.59;5143051;28;20015;-58
2022/05/06 01:20:52;;;;;;;38.75;34.53;;;;;;;-141.48;100.00;69781.59;5127053;28;20107;-59
2022/05/06 01:23:24;;;;;;;48.65;35.42;;;;;;;-141.48;100.00;69781.59;5142773;28;20062;-57
2022/05/06 01:25:54;;;;;;;39.45;32.63;;;;;;;-141.48;100.00;69781.59;5127030;28;20033;-57
2022/05/06 01:28:26;;;;;;;42.95;35.13;;;;;;;-141.48;100.00;69781.59;5144628;28;20061;-58
2022/05/06 01:31:03;;;;;;;69.18;38.47;;;;;;;-141.48;100.00;69781.59;5127306;28;20122;-55
2022/05/06 01:33:36;;;;;;;47.60;33.83;;;;;;;-141.48;100.00;69781.59;5127126;28;20503;-55
2022/05/06 01:36:08;;;;;;;51.75;33.95;;;;;;;-141.48;100.00;69781.59;5127124;28;20031;-55
2022/05/06 01:38:49;;;;;;;39.10;33.78;;;;;;;-141.48;100.00;69781.59;5143036;28;20031;-58
2022/05/06 01:41:26;;;;;;;92.80;35.33;;;;;;;-141.48;100.00;69781.59;5127216;28;20037;-54
2022/05/06 01:44:01;;;;;;;32.85;29.23;;;;;;;-141.48;100.00;69781.59;5142912;28;20122;-58
2022/05/06 01:46:35;;;;;;;71.88;33.05;;;;;;;-141.48;100.00;69781.59;5143016;28;20023;-54
2022/05/06 01:49:06;;;;;;;54.83;33.03;;;;;;;-141.48;100.00;69781.59;5146757;28;20027;-56
2022/05/06 01:51:38;;;;;;;36.97;33.17;;;;;;;-141.48;100.00;69781.59;5130958;28;20454;-60
2022/05/06 01:54:09;;;;;;;54.10;31.80;;;;;;;-141.48;100.00;69781.59;5146821;28;20033;-54
2022/05/06 01:56:41;;;;;;;72.35;33.17;;;;;;;-141.48;100.00;69781.59;5131077;28;20030;-55
2022/05/06 01:59:12;;;;;;;51.47;30.25;;;;;;;-141.48;100.00;69781.59;5147160;28;20023;-58
2022/05/06 02:01:42;;;;;;;73.68;32.92;;;;;;;-141.48;100.00;69781.59;5130796;28;20093;-55
2022/05/06 02:07:02;;;;;;;40.63;34.55;;;;;;;-141.48;100.00;69781.59;5148338;28;20583;-56
2022/05/06 02:09:32;;;;;;;44.03;28.65;;;;;;;-141.48;100.00;69781.59;5130867;28;20113;-57
2022/05/06 02:12:03;;;;;;;86.43;33.17;;;;;;;-141.48;100.00;69781.59;5130647;28;20498;-57
2022/05/06 02:14:34;;;;;;;40.70;31.30;;;;;;;-141.48;100.00;69781.59;5130274;28;20019;-54
2022/05/06 02:17:05;;;;;;;58.67;31.80;;;;;;;-141.48;100.00;69781.59;5130711;28;20097;-60
2022/05/06 02:19:36;;;;;;;38.17;29.95;;;;;;;-141.48;100.00;69781.59;5130639;28;20029;-54
2022/05/06 02:22:06;;;;;;;58.58;33.75;;;;;;;-141.48;100.00;69781.59;5130845;28;20039;-58
2022/05/06 02:24:37;;;;;;;41.88;31.02;;;;;;;-141.48;100.00;69781.59;5129903;28;20447;-58
2022/05/06 02:27:07;;;;;;;56.65;33.80;;;;;;;-141.48;100.00;69781.59;5130457;28;20152;-57
2022/05/06 02:29:39;;;;;;;42.22;35.20;;;;;;;-141.48;100.00;69781.59;5130420;28;20023;-54
2022/05/06 02:34:58;;;;;;;48.10;35.03;;;;;;;-141.48;100.00;69781.59;5147182;28;20034;-56
2022/05/06 02:37:28;;;;;;;43.63;31.90;;;;;;;-141.48;100.00;69781.59;5130094;28;20419;-56
2022/05/06 02:39:59;;;;;;;52.90;35.58;;;;;;;-141.48;100.00;69781.59;5130014;28;20081;-59
2022/05/06 02:42:29;;;;;;;43.60;34.30;;;;;;;-141.48;100.00;69781.59;5146161;28;20042;-58
2022/05/06 02:45:00;;;;;;;42.30;34.63;;;;;;;-141.48;100.00;69781.59;5129521;28;20447;-58
2022/05/06 02:47:30;;;;;;;45.60;37.70;;;;;;;-141.48;100.00;69781.59;5145890;28;20019;-56
2022/05/06 02:50:01;;;;;;;81.65;38.03;;;;;;;-141.48;100.00;69781.59;5145989;28;20049;-59
2022/05/06 02:52:31;;;;;;;60.53;31.00;;;;;;;-141.48;100.00;69781.59;5129786;28;20029;-60
2022/05/06 02:55:02;;;;;;;45.40;30.85;;;;;;;-141.48;100.00;69781.59;5129637;28;20085;-59
2022/05/06 02:57:32;;;;;;;38.63;31.60;;;;;;;-141.48;100.00;69781.59;5147124;28;20073;-59
2022/05/06 03:00:04;;;;;;;53.10;31.85;;;;;;;-141.48;100.00;69781.59;5129520;28;20109;-57
2022/05/06 03:02:35;;;;;;;33.17;29.15;;;;;;;-141.48;100.00;69781.59;5145783;28;20030;-58
2022/05/06 03:05:06;;;;;;;32.35;26.20;;;;;;;-141.48;100.00;69781.59;5145243;28;20082;-55
2022/05/06 03:07:37;;;;;;;34.00;25.52;;;;;;;-141.48;100.00;69781.59;5129443;28;20077;-62
2022/05/06 03:10:09;;;;;;;42.55;23.50;;;;;;;-141.48;100.00;69781.59;5145627;28;20102;-59
2022/05/06 03:12:43;;;;;;;35.65;22.98;;;;;;;-141.48;100.00;69781.59;5129244;28;20062;-59
2022/05/06 03:15:14;;;;;;;27.50;24.33;;;;;;;-141.48;100.00;69781.59;5145264;28;20053;-57
2022/05/06 03:17:44;;;;;;;32.25;24.45;;;;;;;-141.48;100.00;69781.59;5145312;28;20464;-59
2022/05/06 03:20:15;;;;;;;36.10;24.58;;;;;;;-141.48;100.00;69781.59;5129334;28;20054;-56
2022/05/06 03:22:46;;;;;;;28.50;23.73;;;;;;;-141.48;100.00;69781.59;5145589;28;20042;-59
2022/05/06 03:25:17;;;;;;;26.38;23.98;;;;;;;-141.48;100.00;69781.59;5145003;28;20027;-59
2022/05/06 03:28:00;;;;;;;23.63;20.15;;;;;;;-141.48;100.00;69781.59;5189934;23;20112;-80
2022/05/06 03:30:37;;;;;;;24.42;22.10;;;;;;;-141.48;100.00;69781.59;5179392;28;20025;-79
2022/05/06 03:33:09;;;;;;;23.90;20.63;;;;;;;-141.48;100.00;69781.59;5163203;28;20455;-79
2022/05/06 03:35:40;;;;;;;27.27;19.92;;;;;;;-141.48;100.00;69781.59;5179782;28;20045;-82
2022/05/06 03:38:10;;;;;;;21.80;19.70;;;;;;;-141.48;100.00;69781.59;5179170;28;20049;-80
2022/05/06 03:40:41;;;;;;;49.85;20.95;;;;;;;-141.48;100.00;69781.59;5179025;28;20030;-82
2022/05/06 03:43:11;;;;;;;27.60;20.73;;;;;;;-141.48;100.00;69781.59;5178282;28;20105;-82
2022/05/06 03:45:42;;;;;;;33.05;19.75;;;;;;;-141.48;100.00;69781.59;5178805;28;20018;-81
2022/05/06 03:48:12;;;;;;;25.67;20.42;;;;;;;-141.48;100.00;69781.59;5179371;28;20045;-81
2022/05/06 03:53:32;;;;;;;65.63;23.47;;;;;;;-141.48;100.00;69781.59;5179083;28;20100;-81
2022/05/06 03:56:06;;;;;;;42.67;18.85;;;;;;;-141.48;100.00;69781.59;5178640;28;20273;-79
2022/05/06 03:58:36;;;;;;;25.05;18.13;;;;;;;-141.48;100.00;69781.59;5161400;28;20532;-81
2022/05/06 04:01:09;;;;;;;37.70;19.35;;;;;;;-141.48;100.00;69781.59;5158973;28;20061;-80
2022/05/06 04:03:40;;;;;;;29.67;19.77;;;;;;;-141.48;100.00;69781.59;5160910;28;20393;-82
2022/05/06 04:06:13;;;;;;;30.52;20.35;;;;;;;-141.48;100.00;69781.59;5178482;28;20037;-80
2022/05/06 04:08:44;;;;;;;53.47;22.63;;;;;;;-141.48;100.00;69781.59;5178022;28;20413;-79
2022/05/06 04:11:15;;;;;;;21.48;18.00;;;;;;;-141.48;100.00;69781.59;5178188;28;20053;-82
2022/05/06 04:13:45;;;;;;;37.92;20.85;;;;;;;-141.48;100.00;69781.59;5178616;28;20086;-80
2022/05/06 04:16:16;;;;;;;28.77;18.98;;;;;;;-141.48;100.00;69781.59;5178357;28;20034;-79
2022/05/06 04:18:46;;;;;;;47.67;21.08;;;;;;;-141.48;100.00;69781.59;5178414;28;20022;-80
2022/05/06 04:24:06;;;;;;;26.70;21.98;;;;;;;-141.48;100.00;69781.59;5178992;28;20030;-82
2022/05/06 04:26:37;;;;;;;33.08;23.33;;;;;;;-141.48;100.00;69781.59;5178974;28;20030;-81
2022/05/06 04:29:07;;;;;;;31.65;24.15;;;;;;;-141.48;100.00;69781.59;5178212;28;20038;-79
2022/05/06 04:31:38;;;;;;;28.83;17.90;;;;;;;-141.48;100.00;69781.59;5180194;28;20018;-82
2022/05/06 04:34:09;;;;;;;37.85;19.88;;;;;;;-141.48;100.00;69781.59;5162080;28;20090;-81
2022/05/06 04:36:40;;;;;;;27.40;19.13;;;;;;;-141.48;100.00;69781.59;5181527;28;20026;-79
2022/05/06 04:39:11;;;;;;;34.13;19.77;;;;;;;-141.48;100.00;69781.59;5179094;28;20018;-81
2022/05/06 04:41:41;;;;;;;26.73;19.45;;;;;;;-141.48;100.00;69781.59;5160969;28;20499;-80
2022/05/06 04:44:12;;;;;;;30.75;20.90;;;;;;;-141.48;100.00;69781.59;5178383;28;20049;-79
2022/05/06 04:46:42;;;;;;;31.15;20.95;;;;;;;-141.48;100.00;69781.59;5178080;28;20018;-82
2022/05/06 04:49:14;;;;;;;49.33;21.33;;;;;;;-141.48;100.00;69781.59;5160979;28;20022;-82
2022/05/06 04:51:45;;;;;;;26.15;21.58;;;;;;;-141.48;100.00;69781.59;5160217;28;20022;-81
2022/05/06 04:54:15;;;;;;;26.55;23.60;;;;;;;-141.48;100.00;69781.59;5177962;28;20052;-81
2022/05/06 04:56:46;;;;;;;46.22;25.00;;;;;;;-141.48;100.00;69781.59;5173327;28;20030;-80
2022/05/06 04:59:16;;;;;;;31.25;21.63;;;;;;;-141.48;100.00;69781.59;5173560;28;20018;-80
2022/05/06 05:01:47;;;;;;;41.80;20.50;;;;;;;-141.48;100.00;69781.59;5172204;28;20485;-82
2022/05/06 05:04:17;;;;;;;61.05;24.95;;;;;;;-141.48;100.00;69781.59;5154369;28;20404;-80
2022/05/06 05:06:48;;;;;;;27.95;20.50;;;;;;;-141.48;100.00;69781.59;5171946;28;20026;-80
2022/05/06 05:09:18;;;;;;;23.50;21.17;;;;;;;-141.48;100.00;69781.59;5175424;28;20049;-82
2022/05/06 05:11:49;;;;;;;21.67;19.05;;;;;;;-141.48;100.00;69781.59;5177017;28;20038;-81
2022/05/06 05:14:19;;;;;;;24.48;21.25;;;;;;;-141.48;100.00;69781.59;5176539;28;20377;-80
2022/05/06 05:16:50;;;;;;;23.90;19.73;;;;;;;-141.48;100.00;69781.59;5178093;28;20026;-81
2022/05/06 05:19:21;;;;;;;26.95;20.95;;;;;;;-141.48;100.00;69781.59;5161260;28;20403;-82
2022/05/06 05:21:51;;;;;;;79.63;20.80;;;;;;;-141.48;100.00;69781.59;5178639;28;20026;-80
2022/05/06 05:24:21;;;;;;;22.20;19.98;;;;;;;-141.48;100.00;69781.59;5181187;28;20026;-81
2022/05/06 05:26:54;;;;;;;34.38;21.33;;;;;;;-141.48;100.00;69781.59;5181880;28;20113;-80
2022/05/06 05:29:24;;;;;;;23.30;17.58;;;;;;;-141.48;100.00;69781.59;5181314;28;20387;-80
2022/05/06 05:31:55;;;;;;;21.50;17.65;;;;;;;-141.48;100.00;69781.59;5181111;28;20019;-81
2022/05/06 05:34:26;;;;;;;22.25;20.00;;;;;;;-141.48;100.00;69781.59;5163234;28;20022;-80
2022/05/06 05:36:56;;;;;;;25.35;17.58;;;;;;;-141.48;100.00;69781.59;5163458;28;20030;-80
2022/05/06 05:39:27;;;;;;;20.20;17.83;;;;;;;-141.48;100.00;69781.59;5180265;28;20030;-80
2022/05/06 05:41:58;;;;;;;19.00;16.67;;;;;;;-141.48;100.00;69781.59;5181393;28;20050;-82
2022/05/06 05:50:07;;;;;;;21.13;18.25;;;;;;;-141.48;100.00;69781.59;5181598;28;20094;-82
2022/05/06 05:52:37;;;;;;;19.10;17.27;;;;;;;-141.48;100.00;69781.59;5182387;28;20023;-80
2022/05/06 05:55:08;;;;;;;26.23;18.92;;;;;;;-141.48;100.00;69781.59;5182509;28;20022;-80
2022/05/06 05:57:39;;;;;;;18.92;17.20;;;;;;;-141.48;100.00;69781.59;5184463;28;20038;-80
2022/05/06 06:00:10;;;;;;;22.45;16.20;;;;;;;-141.48;100.00;69781.59;5183165;28;20018;-81
2022/05/06 06:02:41;;;;;;;19.08;17.15;;;;;;;-141.48;100.00;69781.59;5183657;28;20452;-81
2022/05/06 06:05:11;;;;;;;27.58;16.65;;;;;;;-141.48;100.00;69781.59;5184500;28;20049;-80
2022/05/06 06:07:42;;;;;;;32.78;19.95;;;;;;;-141.48;100.00;69781.59;5182581;28;20022;-81
2022/05/06 06:10:12;;;;;;;17.73;16.00;;;;;;;-141.48;100.00;69781.59;5181790;28;20029;-82
2022/05/06 06:12:43;;;;;;;20.42;17.13;;;;;;;-141.48;100.00;69781.59;5164699;28;20027;-81
2022/05/06 06:15:15;;;;;;;20.48;18.10;;;;;;;-141.48;100.00;69781.59;5180756;28;20046;-83
2022/05/06 06:17:46;;;;;;;25.27;20.73;;;;;;;-141.48;100.00;69781.59;5182239;28;20030;-82
2022/05/06 06:20:16;;;;;;;25.73;21.33;;;;;;;-141.48;100.00;69781.59;5182786;28;20030;-80
2022/05/06 06:22:47;;;;;;;26.48;21.50;;;;;;;-141.48;100.00;69781.59;5182378;28;20038;-80
2022/05/06 06:25:17;;;;;;;28.27;23.77;;;;;;;-141.48;100.00;69781.59;5165148;28;20037;-81
2022/05/06 06:27:48;;;;;;;23.45;20.95;;;;;;;-141.48;100.00;69781.59;5182835;28;20113;-81
2022/05/06 06:30:19;;;;;;;21.23;18.27;;;;;;;-141.48;100.00;69781.59;5182475;28;20026;-81
2022/05/06 06:32:53;;;;;;;21.75;18.45;;;;;;;-141.48;100.00;69781.59;5182175;28;20076;-81
2022/05/06 06:35:24;;;;;;;24.17;21.73;;;;;;;-141.48;100.00;69781.59;5182685;28;20033;-81
2022/05/06 06:37:54;;;;;;;23.27;20.60;;;;;;;-141.48;100.00;69781.59;5182939;28;20019;-81
2022/05/06 06:40:25;;;;;;;21.63;19.60;;;;;;;-141.48;100.00;69781.59;5181957;28;20481;-81
2022/05/06 06:43:03;;;;;;;24.98;18.95;;;;;;;-141.48;100.00;69781.59;5181426;28;20030;-83
2022/05/06 06:45:35;;;;;;;26.85;21.00;;;;;;;-141.48;100.00;69781.59;5164353;28;20094;-81
2022/05/06 06:48:06;;;;;;;26.38;22.00;;;;;;;-141.48;100.00;69781.59;5180672;28;20030;-81
2022/05/06 06:50:39;;;;;;;23.67;20.95;;;;;;;-141.48;100.00;69781.59;5179584;28;20084;-80
2022/05/06 06:53:09;;;;;;;25.98;23.38;;;;;;;-141.48;100.00;69781.59;5179508;28;20040;-82
2022/05/06 06:55:40;;;;;;;23.98;21.40;;;;;;;-141.48;100.00;69781.59;5182728;28;20050;-83
2022/05/06 06:58:10;;;;;;;25.95;23.20;;;;;;;-141.48;100.00;69781.59;5165463;28;20038;-83
2022/05/06 07:00:42;;;;;;;24.10;19.75;;;;;;;-141.48;100.00;69781.59;5164992;28;20022;-82
2022/05/06 07:03:14;;;;;;;42.10;24.92;;;;;;;-141.48;100.00;69781.59;5180736;28;20022;-82
2022/05/06 07:14:12;;;;;;;22.42;20.30;;;;;;;-141.48;100.00;69781.59;5182423;28;20056;-82
2022/05/06 07:16:43;;;;;;;22.25;20.38;;;;;;;-141.48;100.00;69781.59;5182264;28;20026;-83
2022/05/06 07:19:13;;;;;;;20.50;18.33;;;;;;;-141.48;100.00;69781.59;5182597;28;20026;-82
2022/05/06 07:21:44;;;;;;;24.73;21.80;;;;;;;-141.48;100.00;69781.59;5181915;28;20522;-83
2022/05/06 07:24:14;;;;;;;20.90;17.85;;;;;;;-141.48;100.00;69781.59;5181809;28;20030;-82
2022/05/06 07:26:46;;;;;;;20.80;17.63;;;;;;;-141.48;100.00;69781.59;5181802;28;20026;-82
2022/05/06 07:29:17;;;;;;;21.30;19.02;;;;;;;-141.48;100.00;69781.59;5181663;28;20014;-82
2022/05/06 07:31:47;;;;;;;26.35;20.92;;;;;;;-141.48;100.00;69781.59;5182374;28;20056;-83
2022/05/06 07:34:18;;;;;;;27.58;24.70;;;;;;;-141.48;100.00;69781.59;5181796;28;20030;-83
2022/05/06 07:36:49;;;;;;;25.20;22.92;;;;;;;-141.48;100.00;69781.59;5182255;28;20022;-82
2022/05/06 07:39:19;;;;;;;25.15;22.40;;;;;;;-141.48;100.00;69781.59;5181167;28;20585;-82
2022/05/06 07:41:50;;;;;;;23.67;21.38;;;;;;;-141.48;100.00;69781.59;5182094;28;20116;-81
2022/05/06 07:44:20;;;;;;;33.05;25.17;;;;;;;-141.48;100.00;69781.59;5181751;28;20030;-83
2022/05/06 07:46:51;;;;;;;26.17;22.85;;;;;;;-141.48;100.00;69781.59;5163950;28;20105;-82
2022/05/06 07:49:23;;;;;;;25.77;21.45;;;;;;;-141.48;100.00;69781.59;5181725;28;20021;-82
2022/05/06 07:51:53;;;;;;;23.65;21.33;;;;;;;-141.48;100.00;69781.59;5181580;28;20018;-82
2022/05/06 07:54:24;;;;;;;21.80;18.90;;;;;;;-141.48;100.00;69781.59;5163995;28;20041;-81
2022/05/06 07:56:54;;;;;;;22.42;19.80;;;;;;;-141.48;100.00;69781.59;5181416;28;20045;-82
2022/05/06 07:59:25;;;;;;;25.27;20.08;;;;;;;-141.48;100.00;69781.59;5164081;28;20018;-82
2022/05/06 08:04:48;;;;;;;26.80;20.55;;;;;;;-141.48;100.00;69781.59;5182102;28;20046;-82
2022/05/06 08:07:19;;;;;;;23.73;20.92;;;;;;;-141.48;100.00;69781.59;5185300;28;20049;-83
2022/05/06 08:09:49;;;;;;;29.67;25.92;;;;;;;-141.48;100.00;69781.59;5168662;28;20018;-81
2022/05/06 08:12:19;;;;;;;32.65;23.65;;;;;;;-141.48;100.00;69781.59;5167846;28;20037;-82
2022/05/06 08:14:50;;;;;;;26.55;22.13;;;;;;;-141.48;100.00;69781.59;5185393;28;20029;-84
2022/05/06 08:17:20;;;;;;;28.13;23.38;;;;;;;-141.48;100.00;69781.59;5184672;28;20050;-82
2022/05/06 08:19:51;;;;;;;25.58;21.55;;;;;;;-141.48;100.00;69781.59;5185642;28;20082;-83
2022/05/06 08:22:21;;;;;;;28.20;21.92;;;;;;;-141.48;100.00;69781.59;5167619;28;20101;-84
2022/05/06 08:24:52;;;;;;;27.10;24.38;;;;;;;-141.48;100.00;69781.59;5167396;28;20022;-81
2022/05/06 08:27:22;;;;;;;29.25;23.67;;;;;;;-141.48;100.00;69781.59;5167529;28;20122;-83
2022/05/06 08:29:53;;;;;;;27.15;23.67;;;;;;;-141.48;100.00;69781.59;5185313;28;20026;-83
2022/05/06 08:32:23;;;;;;;27.58;24.08;;;;;;;-141.48;100.00;69781.59;5186011;28;20030;-82
2022/05/06 08:34:54;;;;;;;30.35;24.40;;;;;;;-141.48;100.00;69781.59;5186138;28;20029;-84
2022/05/06 08:37:25;;;;;;;25.67;22.80;;;;;;;-141.48;100.00;69781.59;5169705;28;20010;-80
2022/05/06 08:39:55;;;;;;;31.00;22.35;;;;;;;-141.48;100.00;69781.59;5186153;28;20033;-83
2022/05/06 08:42:26;;;;;;;26.83;24.17;;;;;;;-141.48;100.00;69781.59;5185215;28;20029;-83
2022/05/06 08:50:56;;;;;;;30.35;27.23;;;;;;;-141.48;100.00;69781.59;5181766;28;20085;-80
2022/05/06 08:53:30;;;;;;;30.35;25.83;;;;;;;-141.48;100.00;69781.59;5183718;28;20042;-81
2022/05/06 08:56:05;;;;;;;31.85;26.77;;;;;;;-141.48;100.00;69781.59;5184607;28;20037;-84
2022/05/06 08:58:37;;;;;;;24.50;21.95;;;;;;;-141.48;100.00;69781.59;5183831;28;20065;-82
2022/05/06 09:01:13;;;;;;;27.77;24.73;;;;;;;-141.48;100.00;69781.59;5177853;28;20113;-82
2022/05/06 09:03:45;;;;;;;27.58;23.33;;;;;;;-141.48;100.00;69781.59;5160874;28;20138;-80
2022/05/06 09:06:22;;;;;;;26.85;23.30;;;;;;;-141.48;100.00;69781.59;5179298;28;20022;-82
2022/05/06 09:08:56;;;;;;;31.10;27.80;;;;;;;-141.48;100.00;69781.59;5179495;28;20026;-83
2022/05/06 09:17:19;;;;;;;30.83;24.65;;;;;;;-141.48;100.00;69781.59;5182147;28;20034;-81
2022/05/06 09:19:50;;;;;;;34.20;28.27;;;;;;;-141.48;100.00;69781.59;5180187;28;20377;-83
2022/05/06 09:22:27;;;;;;;28.63;25.00;;;;;;;-141.48;100.00;69781.59;5165861;28;20023;-82
2022/05/06 09:24:58;;;;;;;27.73;24.95;;;;;;;-141.48;100.00;69781.59;5180893;28;20022;-84
2022/05/06 09:27:28;;;;;;;30.27;24.52;;;;;;;-141.48;100.00;69781.59;5194085;23;20157;-60
2022/05/06 09:30:08;;;;;;;32.80;26.25;;;;;;;-141.48;100.00;69781.59;5162758;28;20023;-58
2022/05/06 09:32:38;;;;;;;26.52;23.63;;;;;;;-141.48;100.00;69781.59;5161515;28;20048;-59
2022/05/06 09:35:12;;;;;;;25.55;22.80;;;;;;;-141.48;100.00;69781.59;5164085;28;20018;-62
2022/05/06 09:37:47;;;;;;;26.63;23.85;;;;;;;-141.48;100.00;69781.59;5146945;28;20026;-60
2022/05/06 09:40:29;;;;;;;25.40;22.75;;;;;;;-141.48;100.00;69781.59;5163262;28;20177;-59
2022/05/06 09:43:00;;;;;;;27.10;24.23;;;;;;;-141.48;100.00;69781.59;5146558;28;20029;-60
2022/05/06 09:45:39;;;;;;;31.73;22.92;;;;;;;-141.48;100.00;69781.59;5146549;28;20414;-59
2022/05/06 09:48:13;;;;;;;28.70;23.00;;;;;;;-141.48;100.00;69781.59;5147225;28;20516;-59
2022/05/06 09:50:45;;;;;;;27.23;24.48;;;;;;;-141.48;100.00;69781.59;5146797;28;20033;-59
2022/05/06 09:53:18;;;;;;;29.38;22.30;;;;;;;-141.48;100.00;69781.59;5146588;28;20034;-58
2022/05/06 09:55:49;;;;;;;28.63;24.83;;;;;;;-141.48;100.00;69781.59;5146959;28;20431;-58
2022/05/06 09:58:20;;;;;;;25.17;22.60;;;;;;;-141.48;100.00;69781.59;5163261;28;20025;-60
2022/05/06 10:00:50;;;;;;;32.42;27.05;;;;;;;-141.48;100.00;69781.59;5147465;28;20498;-60
2022/05/06 10:03:20;;;;;;;28.52;23.55;;;;;;;-141.48;100.00;69781.59;5146951;28;20386;-59
2022/05/06 10:05:52;;;;;;;28.17;22.65;;;;;;;-141.48;100.00;69781.59;5147166;28;20038;-59
2022/05/06 10:08:24;;;;;;;29.63;24.00;;;;;;;-141.48;100.00;69781.59;5165104;28;20267;-60
2022/05/06 10:10:58;;;;;;;27.35;20.08;;;;;;;-141.48;100.00;69781.59;5168562;28;20022;-59
2022/05/06 10:13:32;;;;;;;24.52;22.23;;;;;;;-141.48;100.00;69781.59;5150601;28;20022;-60
2022/05/06 10:16:03;;;;;;;30.52;20.08;;;;;;;-141.48;100.00;69781.59;5166859;28;20030;-59
2022/05/06 10:18:35;;;;;;;27.77;19.63;;;;;;;-141.48;100.00;69781.59;5150561;28;20453;-59
2022/05/06 10:21:09;;;;;;;22.15;18.20;;;;;;;-141.48;100.00;69781.59;5151095;28;20030;-58
2022/05/06 10:23:51;;;;;;;19.70;17.30;;;;;;;-141.48;100.00;69781.59;5150417;28;20038;-60
2022/05/06 10:26:40;;;;;;;20.15;18.05;;;;;;;-141.48;100.00;69781.59;5167138;28;20053;-58
2022/05/06 10:32:52;;;;;;;24.75;20.00;;;;;;;-141.48;100.00;69781.59;5168062;28;20030;-60
2022/05/06 10:35:46;;;;;;;22.20;18.40;;;;;;;-141.48;100.00;69781.59;5166130;28;20029;-58
2022/05/06 10:38:24;;;;;;;22.25;19.50;;;;;;;-141.48;100.00;69781.59;5150044;28;20526;-60
2022/05/06 10:41:09;;;;;;;20.30;18.23;;;;;;;-141.48;100.00;69781.59;5150246;28;20031;-60
2022/05/06 10:43:40;;;;;;;19.33;17.40;;;;;;;-141.48;100.00;69781.59;5149671;28;20030;-58
2022/05/06 10:46:11;;;;;;;13.82;12.63;;;;;;;-141.48;100.00;69781.59;5149882;28;20025;-59
2022/05/06 10:48:41;;;;;;;14.30;12.88;;;;;;;-141.48;100.00;69781.59;5149884;28;20022;-62
2022/05/06 10:51:21;;;;;;;17.65;13.85;;;;;;;-141.48;100.00;69781.59;5167756;28;20089;-58
2022/05/06 10:53:52;;;;;;;;;;;;;;;-141.48;100.00;69781.59;5167340;28;20035;-60
2022/05/06 10:56:22;;;;;;;27.95;18.33;;;;;;;-141.48;100.00;69781.59;5165817;28;20303;-59
2022/05/06 10:58:56;;;;;;;22.02;17.95;;;;;;;-141.48;100.00;69781.59;5166060;28;20470;-61
2022/05/06 11:01:27;;;;;;;18.25;16.23;;;;;;;-141.48;100.00;69781.59;5165892;28;20165;-59
2022/05/06 11:03:57;;;;;;;21.38;19.10;;;;;;;-141.48;100.00;69781.59;5166756;28;20549;-60
2022/05/06 11:06:28;;;;;;;22.83;19.02;;;;;;;-141.48;100.00;69781.59;5149318;28;20080;-59
2022/05/06 11:08:58;;;;;;;26.33;19.48;;;;;;;-141.48;100.00;69781.59;5149369;28;20018;-58
2022/05/06 11:11:33;;;;;;;20.73;18.65;;;;;;;-141.48;100.00;69781.59;5149523;28;20445;-58
2022/05/06 11:14:17;;;;;;;26.25;18.55;;;;;;;-141.48;100.00;69781.59;5166785;28;20025;-60
2022/05/06 11:16:48;;;;;;;21.60;16.35;;;;;;;-141.48;100.00;69781.59;5149198;28;20018;-60
2022/05/06 11:19:34;;;;;;;21.95;18.05;;;;;;;-141.48;100.00;69781.59;5149047;28;20540;-62
2022/05/06 11:22:08;;;;;;;17.90;14.25;;;;;;;-141.48;100.00;69781.59;5165299;28;20026;-59
2022/05/06 11:24:39;;;;;;;16.77;15.27;;;;;;;-141.48;100.00;69781.59;5148799;28;20030;-59
2022/05/06 11:27:20;;;;;;;18.15;16.08;;;;;;;-141.48;100.00;69781.59;5149387;28;20065;-59
2022/05/06 11:29:57;;;;;;;22.52;16.98;;;;;;;-141.48;100.00;69781.59;5165147;28;20031;-61
2022/05/06 11:32:29;;;;;;;23.65;19.25;;;;;;;-141.48;100.00;69781.59;5149393;28;20076;-62
2022/05/06 11:35:09;;;;;;;19.02;16.33;;;;;;;-141.48;100.00;69781.59;5166455;28;20109;-62
2022/05/06 11:37:41;;;;;;;36.88;19.08;;;;;;;-141.48;100.00;69781.59;5148424;28;20092;-60
2022/05/06 11:42:57;;;;;;;25.17;16.05;;;;;;;-141.48;100.00;69781.59;5165381;28;20544;-59
2022/05/06 11:48:22;;;;;;;23.48;20.95;;;;;;;-141.48;100.00;69781.59;5166472;28;20457;-60
2022/05/06 11:50:56;;;;;;;20.85;18.77;;;;;;;-141.48;100.00;69781.59;5149058;28;20445;-60
2022/05/06 11:53:27;;;;;;;24.83;17.30;;;;;;;-141.48;100.00;69781.59;5164445;28;20121;-59
2022/05/06 11:55:58;;;;;;;24.58;19.52;;;;;;;-141.48;100.00;69781.59;5149016;28;20553;-58
2022/05/06 11:58:29;;;;;;;21.83;16.73;;;;;;;-141.48;100.00;69781.59;5166119;28;20026;-59
2022/05/06 12:01:00;;;;;;;18.40;16.42;;;;;;;-141.48;100.00;69781.59;5148481;28;20234;-59
2022/05/06 12:03:31;;;;;;;19.02;17.13;;;;;;;-141.48;100.00;69781.59;5148188;28;20474;-60